Time;durP1;ratioP1;P1;durP2;ratioP2;P2;SDS_P1;SDS_P2;PMS_P1;PMS_P2;Temp;Humidity;BMP_temperature;BMP_pressure;BME280_temperature;BME280_humidity;BME280_pressure;Samples;Min_cycle;Max_cycle;Signal;HPM_P1;HPM_P2
2022/01/21 00:00:26;;;;;;;4.27;2.97;;;5.20;67.30;;;;;;5062258;28;20261;-74
2022/01/21 00:02:52;;;;;;;2.83;2.60;;;5.20;67.20;;;;;;5074921;28;20305;-74
2022/01/21 00:05:18;;;;;;;3.87;2.27;;;5.30;67.20;;;;;;5070695;28;20179;-74
2022/01/21 00:07:44;;;;;;;7.33;2.53;;;5.30;67.20;;;;;;5072847;28;20171;-74
2022/01/21 00:10:10;;;;;;;9.50;2.80;;;5.30;67.20;;;;;;5065774;28;20191;-73
2022/01/21 00:12:37;;;;;;;5.80;2.87;;;5.30;67.10;;;;;;5073984;28;20867;-73
2022/01/21 00:15:06;;;;;;;6.50;2.67;;;5.30;67.10;;;;;;5078446;28;20217;-74
2022/01/21 00:17:32;;;;;;;3.30;3.07;;;5.30;67.10;;;;;;5073708;28;20167;-74
2022/01/21 00:30:54;;;;;;;4.77;2.53;;;5.30;68.30;;;;;;5064716;28;20810;-75
2022/01/21 00:33:20;;;;;;;2.00;1.83;;;5.40;69.10;;;;;;5068955;28;20258;-75
2022/01/21 00:35:46;;;;;;;1.00;0.90;;;5.40;70.60;;;;;;5077201;28;20214;-75
2022/01/21 00:38:14;;;;;;;3.73;0.90;;;5.40;71.50;;;;;;5081557;28;20194;-73
2022/01/21 00:40:39;;;;;;;0.80;0.80;;;5.40;73.00;;;;;;5066780;28;20299;-73
2022/01/21 00:43:14;;;;;;;0.50;0.50;;;5.50;74.90;;;;;;5069857;28;20272;-76
2022/01/21 00:45:40;;;;;;;0.60;0.60;;;5.40;76.20;;;;;;5070328;28;20182;-75
2022/01/21 00:48:06;;;;;;;3.97;0.37;;;5.40;78.70;;;;;;5075901;28;20183;-74
2022/01/21 00:50:32;;;;;;;0.40;0.40;;;5.30;80.40;;;;;;5069841;28;20725;-74
2022/01/21 00:52:58;;;;;;;1.43;0.27;;;5.10;81.30;;;;;;5073099;28;20187;-73
2022/01/21 00:55:23;;;;;;;0.50;0.50;;;5.10;82.10;;;;;;5073951;28;20704;-74
2022/01/21 00:57:49;;;;;;;1.83;0.67;;;5.00;82.90;;;;;;5068356;28;20618;-74
2022/01/21 01:00:15;;;;;;;0.40;0.40;;;4.90;83.10;;;;;;5067101;28;20183;-74
2022/01/21 01:02:42;;;;;;;1.03;0.50;;;4.90;82.40;;;;;;5067121;28;20186;-74
2022/01/21 01:05:09;;;;;;;0.57;0.57;;;4.90;82.30;;;;;;5070748;28;20453;-73
2022/01/21 01:07:35;;;;;;;0.50;0.50;;;4.90;82.50;;;;;;5073768;28;20174;-75
2022/01/21 01:10:04;;;;;;;0.50;0.50;;;4.90;82.70;;;;;;5068372;28;20244;-74
2022/01/21 01:20:47;;;;;;;0.30;0.30;;;4.80;83.00;;;;;;5029360;28;20312;-74
2022/01/21 01:28:46;;;;;;;0.50;0.50;;;4.60;84.00;;;;;;4952359;28;20224;-74
2022/01/21 01:31:12;;;;;;;0.73;0.73;;;4.60;83.70;;;;;;4953475;28;20736;-74
2022/01/21 01:33:40;;;;;;;1.23;0.43;;;4.60;83.60;;;;;;4953358;28;20246;-75
2022/01/21 01:36:08;;;;;;;1.03;0.80;;;4.60;83.60;;;;;;4949448;28;20217;-74
2022/01/21 01:41:22;;;;;;;0.50;0.50;;;4.60;83.80;;;;;;4955565;28;20219;-74
2022/01/21 01:49:36;;;;;;;1.13;1.13;;;4.60;83.50;;;;;;4955457;28;20877;-74
2022/01/21 01:52:08;;;;;;;0.50;0.50;;;4.70;83.70;;;;;;4957255;28;20190;-74
2022/01/21 01:54:37;;;;;;;0.80;0.70;;;4.70;83.80;;;;;;4956236;28;21012;-74
2022/01/21 01:57:04;;;;;;;0.70;0.70;;;4.70;83.80;;;;;;4978825;28;20213;-74
2022/01/21 01:59:31;;;;;;;1.50;0.90;;;4.70;84.50;;;;;;4988602;28;20299;-73
2022/01/21 02:01:59;;;;;;;0.80;0.80;;;4.60;85.00;;;;;;4991234;28;20276;-74
2022/01/21 02:04:25;;;;;;;0.97;0.97;;;4.60;85.50;;;;;;5064272;28;20181;-74
2022/01/21 02:06:51;;;;;;;1.77;1.67;;;4.60;85.60;;;;;;5073732;28;20183;-75
2022/01/21 02:09:18;;;;;;;1.23;1.23;;;4.50;85.90;;;;;;5072062;28;20273;-74
2022/01/21 02:11:44;;;;;;;2.60;1.10;;;4.50;86.00;;;;;;5059788;28;20968;-74
2022/01/21 02:14:14;;;;;;;0.90;0.90;;;4.50;85.90;;;;;;5075747;28;20171;-74
2022/01/21 02:22:21;;;;;;;0.93;0.90;;;4.40;87.00;;;;;;5028590;28;20351;-74
2022/01/21 02:24:54;;;;;;;0.97;0.97;;;4.30;87.70;;;;;;5024058;28;20193;-74
2022/01/21 02:27:20;;;;;;;0.73;0.73;;;4.30;87.40;;;;;;5024678;28;20172;-74
2022/01/21 02:29:53;;;;;;;1.13;1.13;;;4.20;88.00;;;;;;5028024;28;20197;-74
2022/01/21 02:32:20;;;;;;;1.33;1.33;;;4.20;88.10;;;;;;5031239;28;20270;-75
2022/01/21 02:34:47;;;;;;;2.77;1.10;;;4.20;87.90;;;;;;5021157;28;20204;-74
2022/01/21 02:37:17;;;;;;;0.97;0.90;;;4.10;88.00;;;;;;5007218;28;20740;-74
2022/01/21 02:39:43;;;;;;;1.30;1.20;;;4.10;88.40;;;;;;5027786;28;20184;-74
2022/01/21 02:42:09;;;;;;;1.70;1.60;;;4.10;88.20;;;;;;5033228;28;20188;-75
2022/01/21 02:44:35;;;;;;;1.90;1.80;;;4.10;88.20;;;;;;5023656;28;21954;-74
2022/01/21 02:47:04;;;;;;;1.50;1.40;;;4.10;88.20;;;;;;5028228;28;20202;-74
2022/01/21 02:49:30;;;;;;;2.37;1.77;;;4.10;88.30;;;;;;5028723;28;20286;-74
2022/01/21 02:51:57;;;;;;;0.93;0.93;;;4.10;88.40;;;;;;5034168;28;20188;-74
2022/01/21 02:54:23;;;;;;;1.53;1.43;;;4.00;88.60;;;;;;5027781;28;20212;-73
2022/01/21 02:56:50;;;;;;;1.60;1.50;;;4.00;88.70;;;;;;5058456;28;20227;-74
2022/01/21 02:59:16;;;;;;;1.40;1.07;;;3.90;88.80;;;;;;5071982;28;20179;-73
2022/01/21 03:01:43;;;;;;;0.80;0.80;;;3.80;88.50;;;;;;5062663;28;20693;-74
2022/01/21 03:04:18;;;;;;;0.70;0.70;;;3.80;88.70;;;;;;5066344;28;20179;-74
2022/01/21 03:06:43;;;;;;;0.80;0.70;;;3.70;88.60;;;;;;5077031;28;20175;-74
2022/01/21 03:09:09;;;;;;;0.60;0.60;;;3.70;89.00;;;;;;5066977;28;20186;-75
2022/01/21 03:11:35;;;;;;;0.50;0.50;;;3.70;89.20;;;;;;5066026;28;20179;-74
2022/01/21 03:14:01;;;;;;;0.30;0.30;;;3.70;89.10;;;;;;5070398;28;20180;-74
2022/01/21 03:16:27;;;;;;;0.73;0.50;;;3.70;89.20;;;;;;5068271;28;20210;-74
2022/01/21 03:18:53;;;;;;;0.87;0.30;;;3.60;89.30;;;;;;5073917;28;20188;-75
2022/01/21 03:21:19;;;;;;;0.30;0.30;;;3.60;89.00;;;;;;5069062;28;20265;-74
2022/01/21 03:23:49;;;;;;;0.23;0.23;;;3.50;89.60;;;;;;5067863;28;20187;-74
2022/01/21 03:26:23;;;;;;;0.23;0.23;;;3.50;89.60;;;;;;5067009;28;20179;-74
2022/01/21 03:28:53;;;;;;;0.10;0.10;;;3.50;89.80;;;;;;5065505;28;20662;-75
2022/01/21 03:31:19;;;;;;;0.10;0.10;;;3.50;89.60;;;;;;5062393;28;20973;-75
2022/01/21 03:33:45;;;;;;;0.10;0.10;;;3.40;89.50;;;;;;5077766;28;20174;-74
2022/01/21 03:36:11;;;;;;;0.10;0.10;;;3.40;89.90;;;;;;5065517;28;20221;-75
2022/01/21 03:38:37;;;;;;;0.10;0.10;;;3.40;89.90;;;;;;5075110;28;20186;-75
2022/01/21 03:41:04;;;;;;;0.10;0.10;;;3.40;89.90;;;;;;5069223;28;20178;-74
2022/01/21 03:43:30;;;;;;;0.40;0.20;;;3.30;90.10;;;;;;5074793;28;20187;-75
2022/01/21 03:45:56;;;;;;;0.10;0.10;;;3.30;90.20;;;;;;5066857;28;20785;-75
2022/01/21 03:48:22;;;;;;;0.10;0.10;;;3.20;90.90;;;;;;5078940;28;20179;-74
2022/01/21 03:50:48;;;;;;;0.10;0.10;;;3.10;90.80;;;;;;5066438;28;20179;-75
2022/01/21 03:53:13;;;;;;;0.00;0.00;;;3.10;90.90;;;;;;5077213;28;20186;-74
2022/01/21 03:55:39;;;;;;;0.10;0.10;;;3.10;91.20;;;;;;5070534;28;20207;-75
2022/01/21 03:58:08;;;;;;;0.10;0.10;;;3.00;90.60;;;;;;5073442;28;20191;-75
2022/01/21 04:00:37;;;;;;;0.00;0.00;;;3.00;91.10;;;;;;5066647;28;20214;-75
2022/01/21 04:03:03;;;;;;;0.00;0.00;;;3.10;91.10;;;;;;5077594;28;20265;-75
2022/01/21 04:05:30;;;;;;;0.10;0.00;;;3.10;91.40;;;;;;5063516;28;20188;-74
2022/01/21 04:07:56;;;;;;;0.10;0.10;;;3.10;91.40;;;;;;5078242;28;20204;-74
2022/01/21 04:10:22;;;;;;;0.53;0.10;;;3.10;91.30;;;;;;5065203;28;20305;-74
2022/01/21 04:12:48;;;;;;;0.00;0.00;;;3.10;91.30;;;;;;5067953;28;20191;-75
2022/01/21 04:15:15;;;;;;;0.43;0.23;;;3.10;91.20;;;;;;5069958;28;20202;-76
2022/01/21 04:17:41;;;;;;;0.10;0.10;;;3.10;91.00;;;;;;5078711;28;20176;-75
2022/01/21 04:20:09;;;;;;;0.10;0.10;;;3.00;91.10;;;;;;5068340;28;20201;-75
2022/01/21 04:22:34;;;;;;;0.00;0.00;;;3.00;91.10;;;;;;5077047;28;20174;-75
2022/01/21 04:25:01;;;;;;;0.10;0.10;;;3.00;91.40;;;;;;5068372;28;20198;-75
2022/01/21 04:27:26;;;;;;;0.10;0.10;;;3.00;91.40;;;;;;5075127;28;20244;-76
2022/01/21 04:29:53;;;;;;;0.10;0.10;;;2.90;91.40;;;;;;5072232;28;20174;-74
2022/01/21 04:32:18;;;;;;;0.20;0.20;;;3.00;91.20;;;;;;5075071;28;20183;-75
2022/01/21 04:34:45;;;;;;;0.00;0.00;;;3.00;91.30;;;;;;5075529;28;20960;-74
2022/01/21 04:37:12;;;;;;;0.03;0.03;;;2.90;91.30;;;;;;5071612;28;20196;-76
2022/01/21 04:39:50;;;;;;;0.20;0.10;;;2.90;91.30;;;;;;5076037;28;20170;-75
2022/01/21 04:47:26;;;;;;;0.10;0.10;;;2.80;91.70;;;;;;5072296;28;20302;-75
2022/01/21 04:49:53;;;;;;;0.10;0.10;;;2.80;91.70;;;;;;5068594;28;20647;-76
2022/01/21 04:52:19;;;;;;;0.20;0.20;;;2.80;91.90;;;;;;5072513;28;20193;-75
2022/01/21 04:54:45;;;;;;;0.20;0.20;;;2.80;91.80;;;;;;5070514;28;20179;-74
2022/01/21 04:57:12;;;;;;;0.10;0.10;;;2.80;91.80;;;;;;5071585;28;20186;-75
2022/01/21 04:59:39;;;;;;;0.10;0.10;;;2.80;91.80;;;;;;5072362;28;20542;-75
2022/01/21 05:02:05;;;;;;;8.10;0.20;;;2.80;91.80;;;;;;5075105;28;20652;-74
2022/01/21 05:04:31;;;;;;;0.10;0.10;;;2.70;91.80;;;;;;5064729;28;20179;-75
2022/01/21 05:06:58;;;;;;;0.13;0.13;;;2.70;92.00;;;;;;5080647;28;20170;-74
2022/01/21 05:09:30;;;;;;;0.30;0.30;;;2.70;91.80;;;;;;5059228;28;20288;-75
2022/01/21 05:11:58;;;;;;;0.00;0.00;;;2.70;91.80;;;;;;5069111;28;20191;-75
2022/01/21 05:14:35;;;;;;;0.20;0.20;;;2.70;91.80;;;;;;5049979;28;20183;-75
2022/01/21 05:17:02;;;;;;;0.20;0.20;;;2.60;91.90;;;;;;5070020;28;20308;-75
2022/01/21 05:19:27;;;;;;;0.10;0.10;;;2.60;91.90;;;;;;5068321;28;20175;-74
2022/01/21 05:21:54;;;;;;;0.10;0.10;;;2.60;91.90;;;;;;5072340;28;20745;-74
2022/01/21 05:24:20;;;;;;;0.30;0.20;;;2.50;91.80;;;;;;5075082;28;20183;-74
2022/01/21 05:26:54;;;;;;;1.33;0.30;;;2.40;92.10;;;;;;5070150;28;20207;-74
2022/01/21 05:29:22;;;;;;;0.10;0.10;;;2.40;92.20;;;;;;5071033;28;20192;-76
2022/01/21 05:31:48;;;;;;;0.10;0.10;;;2.30;92.20;;;;;;5068291;28;20189;-75
2022/01/21 05:34:13;;;;;;;0.10;0.10;;;2.30;92.00;;;;;;5072674;28;20183;-74
2022/01/21 05:36:40;;;;;;;0.10;0.10;;;2.20;92.00;;;;;;5067348;28;20916;-74
2022/01/21 05:39:11;;;;;;;0.13;0.13;;;2.20;92.00;;;;;;5074331;28;20198;-74
2022/01/21 05:41:37;;;;;;;0.20;0.20;;;2.20;91.90;;;;;;5066930;28;20595;-74
2022/01/21 05:44:09;;;;;;;0.10;0.10;;;2.10;91.80;;;;;;5072998;28;20858;-75
2022/01/21 05:49:06;;;;;;;0.20;0.20;;;2.10;92.00;;;;;;5064953;28;20187;-75
2022/01/21 05:51:32;;;;;;;0.10;0.10;;;2.10;92.00;;;;;;5069792;28;20217;-75
2022/01/21 05:53:58;;;;;;;0.30;0.30;;;2.00;92.10;;;;;;5069033;28;20183;-75
2022/01/21 05:56:25;;;;;;;0.10;0.10;;;;;;;;;;5073292;28;20225;-75
2022/01/21 05:58:51;;;;;;;0.10;0.10;;;1.90;92.40;;;;;;5065907;28;20247;-75
2022/01/21 06:01:17;;;;;;;0.17;0.17;;;1.90;92.10;;;;;;5062536;28;20183;-75
2022/01/21 06:03:43;;;;;;;0.20;0.20;;;2.00;92.20;;;;;;5074165;28;20179;-75
2022/01/21 06:06:10;;;;;;;0.30;0.30;;;1.90;92.10;;;;;;5057147;28;20187;-75
2022/01/21 06:08:38;;;;;;;0.77;0.70;;;1.90;92.10;;;;;;5069868;28;20185;-75
2022/01/21 06:11:03;;;;;;;0.00;0.00;;;1.90;92.20;;;;;;5075401;28;20457;-75
2022/01/21 06:13:30;;;;;;;0.27;0.27;;;1.90;92.30;;;;;;5063271;28;20244;-74
2022/01/21 06:15:59;;;;;;;0.20;0.20;;;1.90;92.30;;;;;;5065052;28;20298;-75
2022/01/21 06:18:25;;;;;;;0.10;0.10;;;1.90;92.30;;;;;;5065743;28;20310;-75
2022/01/21 06:20:50;;;;;;;0.10;0.10;;;2.00;92.30;;;;;;5061301;28;21550;-74
2022/01/21 06:23:16;;;;;;;0.23;0.20;;;2.00;92.40;;;;;;5065973;28;20188;-75
2022/01/21 06:25:42;;;;;;;1.53;0.50;;;2.00;92.10;;;;;;5077595;28;20190;-74
2022/01/21 06:28:08;;;;;;;3.87;0.40;;;2.00;92.30;;;;;;5067289;28;20192;-73
2022/01/21 06:30:34;;;;;;;1.07;0.40;;;2.00;92.10;;;;;;5060252;28;20182;-74
2022/01/21 06:32:59;;;;;;;0.47;0.40;;;2.00;92.10;;;;;;5062930;28;20751;-74
2022/01/21 06:35:25;;;;;;;0.20;0.20;;;2.00;92.00;;;;;;5066552;28;20291;-74
2022/01/21 06:37:51;;;;;;;1.00;0.37;;;2.00;91.90;;;;;;5070406;28;20494;-74
2022/01/21 06:40:20;;;;;;;0.23;0.23;;;2.00;91.60;;;;;;5059742;28;20182;-74
2022/01/21 06:42:46;;;;;;;0.20;0.20;;;2.00;91.50;;;;;;5064274;28;20712;-75
2022/01/21 06:45:12;;;;;;;0.40;0.30;;;2.00;91.50;;;;;;5060749;28;20227;-74
2022/01/21 06:47:38;;;;;;;0.50;0.50;;;1.90;91.80;;;;;;5066658;28;20183;-75
2022/01/21 06:50:04;;;;;;;0.40;0.40;;;1.90;91.80;;;;;;5057310;28;20182;-76
2022/01/21 06:52:31;;;;;;;0.20;0.20;;;1.80;91.50;;;;;;5055574;28;20188;-75
2022/01/21 06:54:58;;;;;;;0.20;0.20;;;1.80;91.50;;;;;;5058689;28;20185;-76
2022/01/21 06:57:24;;;;;;;1.07;0.47;;;1.80;91.60;;;;;;5063643;28;20636;-75
2022/01/21 06:59:50;;;;;;;1.03;0.30;;;1.80;91.60;;;;;;5065264;28;20183;-76
2022/01/21 07:02:18;;;;;;;2.73;0.57;;;1.70;91.30;;;;;;5070126;28;20700;-77
2022/01/21 07:04:46;;;;;;;0.87;0.20;;;1.70;91.40;;;;;;5054913;28;20179;-75
2022/01/21 07:07:11;;;;;;;0.20;0.20;;;1.70;91.40;;;;;;5060790;28;20196;-77
2022/01/21 07:09:37;;;;;;;1.70;0.83;;;1.70;91.50;;;;;;5056231;28;21734;-77
2022/01/21 07:12:03;;;;;;;0.93;0.30;;;1.60;91.10;;;;;;5057196;28;20218;-77
2022/01/21 07:14:29;;;;;;;0.50;0.50;;;1.60;91.10;;;;;;5056934;28;20187;-77
2022/01/21 07:16:55;;;;;;;1.03;0.30;;;1.50;91.20;;;;;;5061894;28;20602;-76
2022/01/21 07:19:20;;;;;;;0.50;0.50;;;1.50;90.90;;;;;;5057972;28;20953;-76
2022/01/21 07:21:46;;;;;;;1.60;1.10;;;1.40;90.80;;;;;;5076872;28;20217;-75
2022/01/21 07:24:12;;;;;;;0.50;0.50;;;1.30;91.30;;;;;;5069634;28;20183;-76
2022/01/21 07:26:38;;;;;;;0.80;0.80;;;1.20;91.20;;;;;;5071963;28;20197;-76
2022/01/21 07:29:04;;;;;;;1.63;0.83;;;1.10;91.80;;;;;;5068504;28;20257;-76
2022/01/21 07:31:30;;;;;;;3.60;0.90;;;1.00;91.90;;;;;;5078759;28;20182;-76
2022/01/21 07:33:55;;;;;;;0.50;0.50;;;0.90;92.10;;;;;;5071985;28;20284;-76
2022/01/21 07:36:21;;;;;;;0.90;0.60;;;0.90;92.40;;;;;;5062296;28;20244;-76
2022/01/21 07:38:47;;;;;;;0.50;0.50;;;0.80;92.40;;;;;;5077546;28;20689;-75
2022/01/21 07:41:12;;;;;;;0.60;0.60;;;0.80;92.60;;;;;;5074955;28;20189;-77
2022/01/21 07:43:38;;;;;;;0.87;0.87;;;0.70;92.70;;;;;;5069955;28;20183;-76
2022/01/21 07:46:04;;;;;;;0.63;0.53;;;0.60;93.30;;;;;;5073579;28;20238;-77
2022/01/21 07:48:29;;;;;;;1.20;0.97;;;0.50;93.50;;;;;;5069119;28;20435;-78
2022/01/21 07:50:55;;;;;;;0.30;0.30;;;0.40;93.90;;;;;;5068063;28;20212;-76
2022/01/21 07:53:21;;;;;;;0.40;0.40;;;0.40;94.20;;;;;;5068446;28;20598;-76
2022/01/21 07:55:50;;;;;;;0.30;0.30;;;0.30;94.60;;;;;;5068915;28;21002;-76
2022/01/21 07:58:16;;;;;;;0.90;0.73;;;0.30;94.40;;;;;;5068962;28;20218;-76
2022/01/21 08:00:42;;;;;;;2.73;1.20;;;0.30;94.60;;;;;;5078388;28;20171;-76
2022/01/21 08:03:08;;;;;;;1.23;1.13;;;0.30;94.30;;;;;;5072180;28;20183;-76
2022/01/21 08:05:34;;;;;;;0.77;0.60;;;0.30;94.50;;;;;;5074186;28;20257;-76
2022/01/21 08:08:01;;;;;;;0.60;0.60;;;0.30;94.40;;;;;;5075029;28;20198;-76
2022/01/21 08:10:31;;;;;;;0.20;0.20;;;0.30;94.60;;;;;;5078136;28;20230;-76
2022/01/21 08:12:57;;;;;;;0.20;0.20;;;0.30;94.50;;;;;;5077942;28;21505;-78
2022/01/21 08:15:23;;;;;;;0.50;0.50;;;0.20;94.30;;;;;;5077324;28;20297;-78
2022/01/21 08:17:49;;;;;;;0.57;0.57;;;0.30;94.30;;;;;;5068768;28;20181;-75
2022/01/21 08:20:14;;;;;;;0.33;0.33;;;0.30;94.20;;;;;;5064360;28;20586;-77
2022/01/21 08:22:40;;;;;;;3.83;0.37;;;0.30;94.10;;;;;;5078833;28;20186;-79
2022/01/21 08:25:08;;;;;;;0.37;0.37;;;0.30;93.60;;;;;;5075011;28;20182;-83
2022/01/21 08:27:34;;;;;;;0.50;0.30;;;0.40;93.70;;;;;;5071051;28;20223;-79
2022/01/21 08:30:00;;;;;;;1.43;0.60;;;0.40;93.50;;;;;;5073961;28;20178;-76
2022/01/21 08:32:28;;;;;;;0.27;0.27;;;0.40;93.50;;;;;;5068032;28;20182;-77
2022/01/21 08:34:54;;;;;;;0.40;0.40;;;0.40;93.20;;;;;;5070077;28;20170;-77
2022/01/21 08:37:20;;;;;;;2.00;0.77;;;0.30;93.00;;;;;;5080798;28;20182;-77
2022/01/21 08:39:46;;;;;;;2.00;0.67;;;0.30;93.10;;;;;;5076638;28;20205;-75
2022/01/21 08:42:11;;;;;;;0.60;0.30;;;0.40;93.30;;;;;;5097786;28;20175;-75
2022/01/21 08:44:38;;;;;;;0.27;0.27;;;0.40;92.80;;;;;;5070393;28;20178;-75
2022/01/21 08:47:04;;;;;;;0.37;0.37;;;0.40;92.70;;;;;;5071574;28;20235;-75
2022/01/21 08:49:30;;;;;;;0.43;0.43;;;0.40;92.80;;;;;;5071633;28;20183;-76
2022/01/21 08:51:57;;;;;;;0.30;0.30;;;0.50;92.70;;;;;;5075751;28;20200;-76
2022/01/21 08:54:24;;;;;;;0.20;0.20;;;0.60;92.60;;;;;;5072117;28;20178;-76
2022/01/21 08:56:51;;;;;;;0.30;0.30;;;0.70;92.60;;;;;;5069099;28;20247;-75
2022/01/21 08:59:18;;;;;;;1.33;0.53;;;0.80;92.40;;;;;;5072134;28;20934;-74
2022/01/21 09:01:45;;;;;;;0.40;0.40;;;0.80;91.50;;;;;;5068192;28;20229;-76
2022/01/21 09:04:11;;;;;;;0.50;0.50;;;0.80;91.30;;;;;;5067295;28;20537;-75
2022/01/21 09:06:37;;;;;;;0.50;0.50;;;0.70;91.20;;;;;;5074860;28;20197;-73
2022/01/21 09:09:04;;;;;;;1.87;0.93;;;0.70;90.80;;;;;;5071774;28;20522;-75
2022/01/21 09:11:30;;;;;;;0.73;0.73;;;0.70;91.20;;;;;;5070015;28;20323;-73
2022/01/21 09:13:57;;;;;;;1.03;1.03;;;0.70;90.80;;;;;;5072764;28;20186;-73
2022/01/21 09:16:23;;;;;;;0.57;0.43;;;0.70;90.80;;;;;;5075219;28;20306;-73
2022/01/21 09:18:53;;;;;;;1.13;0.60;;;0.70;90.70;;;;;;5068944;28;20187;-73
2022/01/21 09:21:26;;;;;;;0.50;0.50;;;0.70;90.20;;;;;;5082981;28;20189;-73
2022/01/21 09:23:53;;;;;;;0.40;0.37;;;0.70;90.40;;;;;;5076755;28;20183;-73
2022/01/21 09:26:23;;;;;;;0.30;0.30;;;0.60;89.70;;;;;;5066312;28;20209;-73
2022/01/21 09:28:49;;;;;;;0.50;0.47;;;0.60;90.00;;;;;;5069632;28;20171;-73
2022/01/21 09:31:16;;;;;;;0.80;0.80;;;0.60;90.00;;;;;;5075229;28;20789;-74
2022/01/21 09:33:42;;;;;;;0.50;0.50;;;0.70;90.40;;;;;;5071375;28;20179;-73
2022/01/21 09:36:09;;;;;;;1.03;1.03;;;0.70;90.30;;;;;;5066417;28;20226;-73
2022/01/21 09:38:35;;;;;;;0.87;0.87;;;0.70;89.60;;;;;;5075325;28;20175;-73
2022/01/21 09:41:03;;;;;;;1.07;0.57;;;0.80;89.30;;;;;;5068325;28;20190;-72
2022/01/21 09:43:28;;;;;;;0.30;0.30;;;0.80;89.00;;;;;;5070656;28;20266;-74
2022/01/21 09:45:56;;;;;;;0.90;0.90;;;0.80;89.00;;;;;;5067092;28;20277;-73
2022/01/21 09:48:30;;;;;;;0.47;0.47;;;0.80;89.20;;;;;;5073683;28;20174;-73
2022/01/21 09:51:00;;;;;;;0.43;0.43;;;0.80;88.70;;;;;;5070577;28;20178;-73
2022/01/21 09:53:33;;;;;;;0.50;0.50;;;0.80;88.40;;;;;;5067923;28;20199;-74
2022/01/21 09:56:05;;;;;;;0.50;0.50;;;0.90;88.10;;;;;;5066116;28;20289;-74
2022/01/21 09:58:31;;;;;;;0.40;0.40;;;0.90;87.80;;;;;;5058720;28;20175;-74
2022/01/21 10:00:59;;;;;;;0.40;0.40;;;1.00;87.40;;;;;;5069216;28;20175;-75
2022/01/21 10:03:26;;;;;;;4.80;0.83;;;1.00;86.70;;;;;;5073604;28;20191;-75
2022/01/21 10:05:53;;;;;;;0.20;0.20;;;1.10;86.00;;;;;;5067938;28;20343;-74
2022/01/21 10:08:23;;;;;;;0.40;0.40;;;1.10;85.10;;;;;;5064225;28;20178;-75
2022/01/21 10:10:49;;;;;;;0.97;0.97;;;1.20;85.60;;;;;;5067592;28;20179;-74
2022/01/21 10:13:17;;;;;;;0.73;0.73;;;1.30;84.80;;;;;;5061295;28;20183;-74
2022/01/21 10:15:43;;;;;;;0.20;0.20;;;1.40;84.90;;;;;;5065024;28;20207;-73
2022/01/21 10:18:15;;;;;;;0.73;0.40;;;1.60;85.20;;;;;;5062254;28;20653;-74
2022/01/21 10:20:59;;;;;;;3.17;0.47;;;1.70;84.80;;;;;;5064710;28;20194;-74
2022/01/21 10:23:26;;;;;;;0.47;0.47;;;1.90;84.20;;;;;;5062142;28;20383;-74
2022/01/21 10:26:12;;;;;;;0.30;0.30;;;2.00;82.20;;;;;;5063874;28;20856;-75
2022/01/21 10:28:40;;;;;;;0.40;0.40;;;2.00;81.10;;;;;;5072229;28;20552;-76
2022/01/21 10:31:27;;;;;;;13.63;1.07;;;2.00;81.50;;;;;;5067843;28;20268;-75
2022/01/21 10:33:56;;;;;;;0.70;0.40;;;2.00;81.80;;;;;;5078642;28;20651;-73
2022/01/21 10:36:32;;;;;;;2.53;0.70;;;2.00;81.50;;;;;;5067163;28;20214;-76
2022/01/21 10:39:19;;;;;;;0.20;0.20;;;2.00;81.20;;;;;;5068457;28;20202;-76
2022/01/21 10:41:49;;;;;;;2.17;0.63;;;2.00;81.20;;;;;;5062470;28;20184;-73
2022/01/21 10:44:17;;;;;;;0.70;0.70;;;2.10;80.70;;;;;;5064749;28;20712;-75
2022/01/21 10:47:00;;;;;;;0.50;0.50;;;2.10;80.70;;;;;;5063286;28;20252;-74
2022/01/21 10:49:26;;;;;;;0.30;0.30;;;2.20;79.20;;;;;;5054875;28;20187;-74
2022/01/21 10:51:53;;;;;;;0.73;0.30;;;2.20;80.20;;;;;;5060274;28;20182;-74
2022/01/21 10:54:23;;;;;;;0.50;0.50;;;2.20;79.20;;;;;;5060248;28;20191;-74
2022/01/21 10:57:09;;;;;;;0.40;0.40;;;2.20;79.50;;;;;;5063795;28;20207;-74
2022/01/21 10:59:53;;;;;;;1.07;0.70;;;2.20;79.50;;;;;;5066457;28;20185;-74
2022/01/21 11:02:28;;;;;;;0.47;0.47;;;2.20;79.80;;;;;;5065612;28;20233;-74
2022/01/21 11:04:54;;;;;;;0.50;0.50;;;2.30;80.10;;;;;;5065527;28;20178;-74
2022/01/21 11:07:45;;;;;;;0.20;0.20;;;2.30;78.90;;;;;;5066880;28;20186;-75
2022/01/21 11:10:36;;;;;;;0.60;0.60;;;2.30;79.00;;;;;;5065271;28;20194;-74
2022/01/21 11:13:20;;;;;;;0.40;0.40;;;2.30;78.70;;;;;;5060528;28;20180;-73
2022/01/21 11:15:54;;;;;;;1.13;0.40;;;2.30;79.40;;;;;;5064781;28;20279;-73
2022/01/21 11:18:21;;;;;;;0.20;0.20;;;2.40;80.00;;;;;;5058583;28;20179;-75
2022/01/21 11:21:09;;;;;;;0.70;0.70;;;2.40;80.30;;;;;;5061771;28;20186;-75
2022/01/21 11:23:37;;;;;;;3.13;0.37;;;2.40;79.20;;;;;;5067874;28;20190;-76
2022/01/21 11:26:08;;;;;;;0.63;0.63;;;2.40;79.10;;;;;;5056100;28;20188;-77
2022/01/21 11:28:39;;;;;;;0.90;0.90;;;2.40;79.40;;;;;;5061653;28;20272;-76
2022/01/21 11:31:06;;;;;;;0.97;0.80;;;2.40;79.40;;;;;;5067679;28;20898;-75
2022/01/21 11:33:31;;;;;;;0.70;0.70;;;2.40;78.70;;;;;;5062040;28;20892;-75
2022/01/21 11:35:58;;;;;;;0.60;0.53;;;2.30;77.30;;;;;;5063706;28;20218;-73
2022/01/21 11:38:28;;;;;;;0.70;0.70;;;2.20;77.70;;;;;;5066055;28;20189;-73
2022/01/21 11:40:55;;;;;;;0.67;0.50;;;2.20;78.10;;;;;;5070463;28;20198;-73
2022/01/21 11:43:21;;;;;;;0.40;0.40;;;2.10;77.20;;;;;;5067839;28;20186;-72
2022/01/21 11:51:26;;;;;;;2.00;0.80;;;1.80;78.10;;;;;;5066997;28;20213;-71
2022/01/21 11:53:54;;;;;;;1.33;0.60;;;1.70;77.10;;;;;;5070508;28;20190;-73
2022/01/21 11:56:42;;;;;;;2.13;0.70;;;1.60;78.00;;;;;;5072568;28;20222;-73
2022/01/21 11:59:15;;;;;;;0.70;0.70;;;1.50;77.10;;;;;;5072871;28;20205;-72
2022/01/21 12:01:47;;;;;;;0.93;0.70;;;1.50;79.00;;;;;;5064516;28;20187;-72
2022/01/21 12:04:41;;;;;;;0.77;0.77;;;1.50;79.30;;;;;;5063173;28;20191;-72
2022/01/21 12:07:32;;;;;;;0.70;0.70;;;1.50;78.50;;;;;;5069560;28;20604;-71
2022/01/21 12:10:21;;;;;;;1.43;0.77;;;1.50;78.50;;;;;;5071834;28;20267;-71
2022/01/21 12:13:00;;;;;;;2.63;1.07;;;1.30;79.00;;;;;;5066386;28;20549;-72
2022/01/21 12:15:30;;;;;;;0.87;0.87;;;1.30;80.00;;;;;;5068323;28;21833;-72
2022/01/21 12:20:51;;;;;;;1.97;1.07;;;1.10;80.10;;;;;;5064642;28;20464;-73
2022/01/21 12:23:21;;;;;;;1.77;0.87;;;1.00;80.90;;;;;;5067835;28;20189;-72
2022/01/21 12:26:08;;;;;;;1.00;1.00;;;1.00;80.80;;;;;;5072615;28;21091;-72
2022/01/21 12:28:35;;;;;;;2.77;1.40;;;0.90;80.90;;;;;;5076551;28;20264;-72
2022/01/21 12:31:02;;;;;;;1.70;1.60;;;0.90;81.60;;;;;;5066256;28;20175;-72
2022/01/21 12:34:22;;;;;;;6.57;1.17;;;0.90;81.60;;;;;;5063046;28;20192;-71
2022/01/21 12:36:56;;;;;;;0.97;0.97;;;0.90;81.50;;;;;;5074267;28;20248;-71
2022/01/21 12:39:44;;;;;;;1.33;1.23;;;0.80;80.80;;;;;;5065079;28;20179;-71
2022/01/21 12:42:21;;;;;;;1.47;0.73;;;0.90;81.20;;;;;;5064776;28;20203;-71
2022/01/21 12:44:52;;;;;;;1.20;1.20;;;1.00;81.80;;;;;;5068806;28;20273;-72
2022/01/21 12:47:34;;;;;;;1.83;1.20;;;1.00;82.30;;;;;;5071702;28;20384;-73
2022/01/21 12:50:33;;;;;;;1.97;1.47;;;1.00;81.60;;;;;;5070894;28;20175;-72
2022/01/21 12:55:55;;;;;;;1.27;0.93;;;0.90;80.40;;;;;;5068332;28;20692;-72
2022/01/21 12:58:32;;;;;;;1.10;1.03;;;1.00;81.10;;;;;;5065566;28;20183;-72
2022/01/21 13:01:05;;;;;;;2.07;1.53;;;0.90;80.70;;;;;;5071527;28;20186;-74
2022/01/21 13:03:54;;;;;;;0.90;0.90;;;0.90;80.80;;;;;;5069989;28;20566;-71
2022/01/21 13:06:20;;;;;;;1.37;1.33;;;0.90;81.10;;;;;;5067254;28;20230;-71
2022/01/21 13:09:13;;;;;;;0.97;0.97;;;0.90;81.30;;;;;;5064064;28;20677;-72
2022/01/21 13:11:43;;;;;;;0.80;0.80;;;0.90;80.20;;;;;;5067084;28;20186;-73
2022/01/21 13:17:11;;;;;;;0.70;0.70;;;1.00;79.40;;;;;;5075035;28;20232;-72
2022/01/21 13:19:47;;;;;;;0.40;0.40;;;1.00;79.10;;;;;;5068597;28;20756;-72
2022/01/21 13:22:29;;;;;;;0.67;0.67;;;0.90;78.60;;;;;;5065391;28;20612;-72
2022/01/21 13:25:16;;;;;;;0.50;0.50;;;0.80;78.40;;;;;;5072721;28;20217;-73
2022/01/21 13:27:51;;;;;;;0.60;0.60;;;0.80;79.60;;;;;;5069701;28;20302;-72
2022/01/21 13:30:19;;;;;;;0.70;0.70;;;0.80;79.40;;;;;;5074348;28;20201;-73
2022/01/21 13:32:46;;;;;;;1.13;0.70;;;0.80;80.00;;;;;;5067380;28;20216;-72
2022/01/21 13:35:17;;;;;;;0.67;0.67;;;0.80;80.20;;;;;;5064659;28;20186;-71
2022/01/21 13:38:09;;;;;;;0.50;0.43;;;0.80;80.40;;;;;;5057831;28;20178;-72
2022/01/21 13:40:42;;;;;;;0.23;0.23;;;0.70;79.30;;;;;;5065133;28;20191;-73
2022/01/21 13:43:21;;;;;;;2.60;0.73;;;0.70;80.00;;;;;;5061121;28;20294;-75
2022/01/21 13:45:59;;;;;;;0.97;0.77;;;0.70;80.10;;;;;;5072283;28;20182;-74
2022/01/21 13:48:26;;;;;;;0.50;0.50;;;0.70;79.80;;;;;;5071264;28;20205;-73
2022/01/21 13:50:53;;;;;;;5.17;0.87;;;0.70;80.00;;;;;;5071843;28;20232;-74
2022/01/21 13:53:21;;;;;;;7.37;1.03;;;0.70;79.80;;;;;;5063277;28;20183;-74
2022/01/21 13:55:49;;;;;;;1.70;1.07;;;0.60;79.20;;;;;;5070523;28;20221;-74
2022/01/21 13:58:32;;;;;;;0.40;0.40;;;0.60;79.60;;;;;;5071505;28;20198;-74
2022/01/21 14:01:13;;;;;;;0.67;0.67;;;0.50;79.30;;;;;;5073220;28;20209;-73
2022/01/21 14:03:41;;;;;;;3.77;0.57;;;0.50;79.20;;;;;;5065362;28;20179;-74
2022/01/21 14:06:22;;;;;;;1.40;0.67;;;0.30;78.60;;;;;;5073227;28;20294;-73
2022/01/21 14:08:54;;;;;;;1.20;0.60;;;0.30;79.00;;;;;;5072817;28;20186;-73